Αναφορές METAR Αεροδρομίων

 

LGTS - THESSALONIKI - GREECE
Ενημερώθηκε: 18/08/2018 08:50
Αίθριος
Αίθριος
 Ανεμος από varies
Ανεμος: varies 4 km/h
Θερμοκρασία: 26°C
Σημείο Δρόσου: 17°C
Υγρασία: 58%
Βαρόμετρο: 1013 hPa
Περίληψη: Αίθριος
Visibility: greater than 10 km
2018/08/18 05:50 LGTS 180550Z VRB02KT CAVOK 26/17 Q1013 NOSIG
LGLR - LARTISA - GREECE
Ενημερώθηκε: 18/08/2018 08:50
Αραιές Νεφώσεις
Αραιές Νεφώσεις
 Ανεμος από calm
Ανεμος: Απνοια
Θερμοκρασία: 23°C
Σημείο Δρόσου: 16°C
Υγρασία: 65%
Βαρόμετρο: 1013 hPa
Clouds: Αραιές Νεφώσεις
Visibility: 10 km
Cloud details: Αραιές Νεφώσεις 914 m
2018/08/18 05:50 LGLR 180550Z 00000KT 9999 FEW030 23/16 Q1013 RMK FEW080 BLU
 
LGKZ - KOZANI - GREECE
Ενημερώθηκε: 18/08/2018 08:50
Αραιές Νεφώσεις
Αραιές Νεφώσεις
 Ανεμος από Β
Ανεμος: Β 11 km/h
Θερμοκρασία: 21°C
Σημείο Δρόσου: 13°C
Υγρασία: 60%
Βαρόμετρο: 1017 hPa
Clouds: Αραιές Νεφώσεις
Visibility: 10 km
Cloud details: Αραιές Νεφώσεις 2134 m
2018/08/18 05:50 LGKZ 180550Z 36006KT 9999 FEW070 21/13 Q1017
LGKV - KAVALA - GREECE
Ενημερώθηκε: 18/08/2018 08:50
Αίθριος
Αίθριος
 Ανεμος από calm
Ανεμος: Απνοια
Θερμοκρασία: 25°C
Σημείο Δρόσου: 18°C
Υγρασία: 65%
Βαρόμετρο: 1012 hPa
Περίληψη: Αίθριος
Visibility: greater than 10 km
2018/08/18 05:50 LGKV 180550Z 00000KT CAVOK 25/18 Q1012
 
LGIO - IOANNINA - GREECE
Ενημερώθηκε: 18/08/2018 08:50
Fog, Σχεδόν νεφελώδης
Fog, Σχεδόν νεφελώδης
 Ανεμος από varies
Ανεμος: varies 0 km/h
Θερμοκρασία: 18°C
Σημείο Δρόσου: 17°C
Υγρασία: 94%
Βαρόμετρο: 1016 hPa
Περίληψη: Fog
Clouds: Σχεδόν νεφελώδης
Visibility: 1 km
Cloud details: Σχεδόν νεφελώδης 30 m
2018/08/18 05:50 LGIO 180550Z /////KT 0900 FG BKN001 18/17 Q1016
LGBL - BOLOS - GREECE
Ενημερώθηκε: 18/08/2018 08:50
Αραιές Νεφώσεις
Αραιές Νεφώσεις
 Ανεμος από Δ
Ανεμος: Δ 7 km/h
Θερμοκρασία: 26°C
Σημείο Δρόσου: 16°C
Υγρασία: 54%
Βαρόμετρο: 1012 hPa
Clouds: Αραιές Νεφώσεις
Visibility: 10 km
Cloud details: Αραιές Νεφώσεις 914 m
2018/08/18 05:50 LGBL 180550Z 28004KT 9999 FEW030 26/16 Q1012
 
LGMT - MITILINI - GREECE
Ενημερώθηκε: 18/08/2018 08:50
Αίθριος
Αίθριος
 Ανεμος από ΒΒΔ
Ανεμος: ΒΒΔ 13 km/h
Θερμοκρασία: 26°C
Σημείο Δρόσου: 18°C
Υγρασία: 61%
Βαρόμετρο: 1010 hPa
Περίληψη: Αίθριος
Visibility: greater than 10 km
2018/08/18 05:50 LGMT 180550Z 33007KT CAVOK 26/18 Q1010
LGAV - ATHENS - GREECE
Ενημερώθηκε: 18/08/2018 08:50
Αίθριος
Αίθριος
 Ανεμος από ΒΒΔ
Ανεμος: ΒΒΔ 7 km/h, Ριπή: 26 km/h
Θερμοκρασία: 29°C
Heat Index: 28°C
Σημείο Δρόσου: 14°C
Υγρασία: 40%
Βαρόμετρο: 1011 hPa
Περίληψη: Αίθριος
Visibility: greater than 10 km
2018/08/18 05:50 LGAV 180550Z 34004G14KT 280V130 CAVOK 29/14 Q1011 NOSIG
 
LGRP - RODOS - GREECE
Ενημερώθηκε: 18/08/2018 08:50
Αίθριος
Αίθριος
 Ανεμος από ΔΝΔ
Ανεμος: ΔΝΔ 24 km/h
Θερμοκρασία: 26°C
Σημείο Δρόσου: 22°C
Υγρασία: 79%
Βαρόμετρο: 1005 hPa
Περίληψη: Αίθριος
Visibility: greater than 10 km
2018/08/18 05:50 LGRP 180550Z 25013KT CAVOK 26/22 Q1005 NOSIG
LGIR - HRAKLIO/KRITI - GREECE
Ενημερώθηκε: 18/08/2018 08:50
Αίθριος
Αίθριος
 Ανεμος από varies
Ανεμος: varies 6 km/h
Θερμοκρασία: 27°C
Heat Index: 29°C
Σημείο Δρόσου: 21°C
Υγρασία: 70%
Βαρόμετρο: 1010 hPa
Περίληψη: Αίθριος
Visibility: greater than 10 km
2018/08/18 05:50 LGIR 180550Z VRB03KT CAVOK 27/21 Q1010 NOSIG
 
LGMK - MIKONOS - GREECE
Ενημερώθηκε: 18/08/2018 08:50
Αραιές Νεφώσεις
Αραιές Νεφώσεις
 Ανεμος από Β
Ανεμος: Β 22 km/h
Θερμοκρασία: 26°C
Σημείο Δρόσου: 18°C
Υγρασία: 61%
Βαρόμετρο: 1009 hPa
Clouds: Αραιές Νεφώσεις
Visibility: 10 km
Cloud details: Αραιές Νεφώσεις 549 m
2018/08/18 05:50 LGMK 180550Z 35012KT 9999 FEW018 26/18 Q1009
LGKR - KERKIRA - GREECE
Ενημερώθηκε: 18/08/2018 08:50
Αίθριος
Αίθριος
 Ανεμος από calm
Ανεμος: Απνοια
Θερμοκρασία: 25°C
Σημείο Δρόσου: 21°C
Υγρασία: 79%
Βαρόμετρο: 1012 hPa
Περίληψη: Αίθριος
Visibility: greater than 10 km
2018/08/18 05:50 LGKR 180550Z 00000KT CAVOK 25/21 Q1012 NOSIG